Time;durP1;ratioP1;P1;durP2;ratioP2;P2;SDS_P1;SDS_P2;PMS_P1;PMS_P2;Temp;Humidity;BMP_temperature;BMP_pressure;BME280_temperature;BME280_humidity;BME280_pressure;Samples;Min_cycle;Max_cycle;Signal;HPM_P1;HPM_P2
2023/05/04 00:02:05;;;;;;;15.75;9.40;;;;;;;13.03;53.88;102470.06;4964342;28;20058;-46
2023/05/04 00:04:30;;;;;;;15.70;9.55;;;;;;;13.08;53.34;102465.84;4960488;28;20232;-43
2023/05/04 00:06:55;;;;;;;15.98;9.45;;;;;;;13.08;53.76;102455.38;4964040;28;20497;-44
2023/05/04 00:09:21;;;;;;;13.65;9.52;;;;;;;13.09;53.49;102449.28;4960495;28;20094;-44
2023/05/04 00:11:46;;;;;;;15.27;9.50;;;;;;;13.22;53.50;102450.56;4965964;28;20038;-43
2023/05/04 00:14:11;;;;;;;16.27;9.23;;;;;;;13.14;53.36;102449.44;4962669;28;20118;-42
2023/05/04 00:16:37;;;;;;;15.93;9.45;;;;;;;13.02;53.90;102445.63;4965139;28;20027;-46
2023/05/04 00:19:02;;;;;;;14.77;9.63;;;;;;;13.09;53.66;102445.78;4963749;28;20035;-44
2023/05/04 00:21:27;;;;;;;16.52;10.00;;;;;;;13.16;53.67;102445.16;4960378;28;20035;-46
2023/05/04 00:23:53;;;;;;;17.17;10.05;;;;;;;12.96;54.17;102448.06;4964403;28;20042;-44
2023/05/04 00:26:18;;;;;;;16.63;10.10;;;;;;;13.04;53.60;102439.53;4960750;28;20031;-43
2023/05/04 00:28:43;;;;;;;17.15;9.75;;;;;;;13.15;53.68;102435.50;4965296;28;20505;-44
2023/05/04 00:31:09;;;;;;;19.00;9.65;;;;;;;12.95;54.01;102443.66;4964378;28;20556;-43
2023/05/04 00:33:34;;;;;;;15.50;9.90;;;;;;;12.84;54.44;102439.84;4960401;28;20033;-44
2023/05/04 00:36:02;;;;;;;17.10;9.77;;;;;;;13.21;53.47;102447.03;4963719;28;20126;-45
2023/05/04 00:38:28;;;;;;;17.35;9.45;;;;;;;13.15;53.47;102451.22;4960243;28;20023;-46
2023/05/04 00:40:53;;;;;;;16.45;10.43;;;;;;;13.18;53.35;102441.72;4962930;28;20043;-43
2023/05/04 00:43:18;;;;;;;16.08;10.57;;;;;;;12.96;54.06;102447.16;4960268;28;20122;-43
2023/05/04 00:45:43;;;;;;;18.58;10.18;;;;;;;12.84;54.36;102446.81;4963408;28;20490;-43
2023/05/04 00:48:09;;;;;;;19.40;9.98;;;;;;;13.02;53.80;102443.00;4963732;28;20058;-44
2023/05/04 00:50:35;;;;;;;16.27;9.88;;;;;;;12.99;53.89;102437.66;4960019;28;20031;-46
2023/05/04 00:53:06;;;;;;;16.35;10.30;;;;;;;13.18;53.52;102438.19;4964604;28;20034;-45
2023/05/04 00:55:31;;;;;;;15.93;10.45;;;;;;;13.01;53.82;102425.50;4965017;28;20087;-43
2023/05/04 00:57:57;;;;;;;17.63;11.07;;;;;;;12.51;54.87;102431.88;4968515;28;20126;-44
2023/05/04 01:00:22;;;;;;;16.70;10.52;;;;;;;12.88;53.77;102419.88;4964049;28;20106;-43
2023/05/04 01:02:48;;;;;;;16.73;10.55;;;;;;;12.94;53.84;102422.66;4968420;28;20038;-44
2023/05/04 01:05:13;;;;;;;18.13;10.35;;;;;;;13.06;53.40;102411.66;4966038;28;20218;-46
2023/05/04 01:08:05;;;;;;;16.98;10.57;;;;;;;13.08;53.26;102417.81;4968858;28;20085;-45
2023/05/04 01:10:35;;;;;;;18.77;10.63;;;;;;;12.77;54.11;102414.34;4963645;28;21442;-44
2023/05/04 01:13:07;;;;;;;17.02;10.90;;;;;;;12.60;54.45;102406.00;4966917;28;20500;-43
2023/05/04 01:15:33;;;;;;;17.40;10.65;;;;;;;12.92;53.47;102399.09;4963588;28;20611;-44
2023/05/04 01:17:59;;;;;;;18.52;10.50;;;;;;;12.85;53.88;102398.88;4967156;28;20046;-44
2023/05/04 01:20:24;;;;;;;18.67;10.80;;;;;;;13.10;52.97;102397.81;4963430;28;20039;-44
2023/05/04 01:22:50;;;;;;;19.48;10.70;;;;;;;12.76;54.08;102390.72;4967069;28;20445;-42
2023/05/04 01:25:16;;;;;;;21.00;11.48;;;;;;;12.63;54.38;102399.06;4963145;28;20023;-45
2023/05/04 01:27:48;;;;;;;17.42;11.07;;;;;;;12.66;54.25;102388.72;4966828;28;20179;-44
2023/05/04 01:30:19;;;;;;;18.77;11.18;;;;;;;12.85;53.92;102386.66;4963126;28;20122;-45
2023/05/04 01:32:46;;;;;;;19.15;11.52;;;;;;;12.80;53.72;102376.91;4967237;28;20043;-44
2023/05/04 01:35:12;;;;;;;19.00;11.38;;;;;;;12.55;54.98;102383.16;4965421;28;20548;-43
2023/05/04 01:37:38;;;;;;;18.80;11.30;;;;;;;12.58;54.32;102378.91;4968746;28;20079;-44
2023/05/04 01:40:04;;;;;;;23.13;11.75;;;;;;;12.38;54.57;102382.66;4969335;28;20039;-43
2023/05/04 01:42:29;;;;;;;21.20;11.30;;;;;;;12.56;54.47;102380.56;4966084;28;20409;-43
2023/05/04 01:44:55;;;;;;;20.63;11.38;;;;;;;12.62;54.05;102379.00;4972069;28;20038;-45
2023/05/04 01:47:20;;;;;;;16.95;10.70;;;;;;;12.45;54.24;102378.50;4967057;28;20057;-41
2023/05/04 01:49:45;;;;;;;20.55;11.73;;;;;;;12.17;55.08;102388.13;4965999;28;20122;-44
2023/05/04 01:52:11;;;;;;;18.73;11.10;;;;;;;12.65;54.10;102385.19;4963336;28;20039;-45
2023/05/04 01:54:36;;;;;;;22.23;10.93;;;;;;;12.46;54.79;102385.50;4966326;28;20353;-46
2023/05/04 01:57:01;;;;;;;22.40;11.02;;;;;;;12.69;53.67;102379.19;4966399;28;20037;-45
2023/05/04 01:59:27;;;;;;;24.13;11.52;;;;;;;12.52;54.23;102376.09;4962285;28;20031;-46
2023/05/04 02:01:52;;;;;;;19.85;11.25;;;;;;;12.19;55.29;102381.25;4966673;28;20035;-44
2023/05/04 02:04:17;;;;;;;18.60;11.65;;;;;;;12.41;54.53;102376.63;4962264;28;20066;-46
2023/05/04 02:06:43;;;;;;;17.33;10.95;;;;;;;12.66;54.16;102371.28;4966350;28;20031;-44
2023/05/04 02:09:08;;;;;;;18.92;11.27;;;;;;;12.44;54.39;102376.75;4967382;28;20047;-43
2023/05/04 02:11:33;;;;;;;20.33;11.23;;;;;;;12.41;54.65;102368.78;4964643;28;20113;-44
2023/05/04 02:13:59;;;;;;;19.10;11.02;;;;;;;12.32;54.92;102371.16;4967029;28;20521;-43
2023/05/04 02:16:24;;;;;;;18.25;11.75;;;;;;;12.16;55.25;102362.81;4963377;28;20034;-46
2023/05/04 02:18:49;;;;;;;17.88;10.88;;;;;;;12.42;54.31;102366.22;4966124;28;20414;-43
2023/05/04 02:21:15;;;;;;;18.45;11.10;;;;;;;12.52;54.36;102354.28;4962440;28;20425;-44
2023/05/04 02:23:40;;;;;;;16.98;10.63;;;;;;;12.28;54.91;102356.19;4966162;28;20494;-44
2023/05/04 02:26:05;;;;;;;18.95;11.52;;;;;;;12.07;56.07;102357.34;4965649;28;20089;-44
2023/05/04 02:28:31;;;;;;;16.60;11.07;;;;;;;12.12;55.21;102357.47;4962587;28;20383;-48
2023/05/04 02:30:56;;;;;;;18.38;11.13;;;;;;;12.06;55.48;102352.94;4966096;28;20073;-44
2023/05/04 02:33:21;;;;;;;19.15;11.20;;;;;;;11.92;55.93;102350.72;4963314;28;20492;-45
2023/05/04 02:35:47;;;;;;;16.95;10.82;;;;;;;12.11;55.14;102353.06;4966316;28;20047;-42
2023/05/04 02:38:12;;;;;;;17.08;10.30;;;;;;;12.15;55.31;102349.69;4962551;28;20618;-45
2023/05/04 02:40:38;;;;;;;19.55;10.80;;;;;;;11.91;56.09;102349.84;4966820;28;20034;-43
2023/05/04 02:43:03;;;;;;;16.98;10.40;;;;;;;12.25;55.36;102346.53;4966135;28;20034;-43
2023/05/04 02:45:28;;;;;;;17.83;11.25;;;;;;;12.03;55.84;102344.09;4962822;28;20121;-42
2023/05/04 02:47:53;;;;;;;19.77;10.35;;;;;;;11.87;56.41;102344.47;4966503;28;20058;-45
2023/05/04 02:50:19;;;;;;;16.45;10.43;;;;;;;12.07;55.79;102336.41;4962615;28;20106;-42
2023/05/04 02:52:44;;;;;;;18.00;10.90;;;;;;;12.13;55.52;102333.09;4966450;28;20466;-46
2023/05/04 02:55:09;;;;;;;15.75;10.20;;;;;;;12.11;55.84;102334.78;4965919;28;20484;-44
2023/05/04 02:57:35;;;;;;;18.25;10.85;;;;;;;12.09;55.98;102344.28;4962963;28;20038;-45
2023/05/04 03:00:00;;;;;;;18.50;10.35;;;;;;;11.87;56.57;102340.13;4965645;28;20085;-47
2023/05/04 03:02:25;;;;;;;16.40;10.25;;;;;;;11.97;56.54;102336.97;4963834;28;20166;-43
2023/05/04 03:04:51;;;;;;;17.15;10.30;;;;;;;12.00;55.92;102333.56;4966666;28;20103;-43
2023/05/04 03:07:16;;;;;;;17.50;10.38;;;;;;;11.76;56.55;102339.81;4962904;28;20497;-44
2023/05/04 03:09:42;;;;;;;19.00;10.75;;;;;;;11.70;56.55;102334.34;4965873;28;20050;-43
2023/05/04 03:12:07;;;;;;;17.77;10.75;;;;;;;11.75;56.91;102338.03;4969044;28;20034;-45
2023/05/04 03:14:32;;;;;;;16.17;10.23;;;;;;;12.07;56.17;102331.19;4963672;28;20034;-44
2023/05/04 03:16:58;;;;;;;17.88;10.43;;;;;;;12.07;56.17;102325.97;4964332;28;20037;-43
2023/05/04 03:19:23;;;;;;;21.42;10.55;;;;;;;11.93;56.29;102335.09;4962999;28;20143;-46
2023/05/04 03:21:49;;;;;;;16.35;10.23;;;;;;;11.87;56.29;102339.25;4967136;28;20070;-42
2023/05/04 03:24:16;;;;;;;17.10;10.30;;;;;;;11.70;56.67;102333.47;4965339;28;20044;-44
2023/05/04 03:26:42;;;;;;;15.27;9.60;;;;;;;11.88;56.32;102330.56;4969285;28;20038;-44
2023/05/04 03:29:07;;;;;;;14.55;9.82;;;;;;;12.07;56.14;102328.56;4968788;28;20043;-42
2023/05/04 03:31:32;;;;;;;15.35;9.63;;;;;;;12.11;55.60;102327.81;4962542;28;20026;-42
2023/05/04 03:33:58;;;;;;;15.07;9.98;;;;;;;11.95;56.24;102328.19;4966684;28;20049;-45
2023/05/04 03:36:24;;;;;;;14.70;9.63;;;;;;;12.07;55.91;102327.69;4963571;28;20050;-42
2023/05/04 03:38:50;;;;;;;16.55;10.13;;;;;;;11.97;56.13;102334.34;4964961;28;20039;-43
2023/05/04 03:41:15;;;;;;;16.42;10.27;;;;;;;11.90;56.39;102334.09;4961037;28;20490;-42
2023/05/04 03:43:41;;;;;;;14.57;9.65;;;;;;;12.03;56.25;102333.63;4965004;28;20117;-43
2023/05/04 03:46:06;;;;;;;17.00;10.23;;;;;;;11.83;56.50;102332.16;4964531;28;20350;-45
2023/05/04 03:48:31;;;;;;;15.88;10.13;;;;;;;11.96;56.59;102323.81;4961128;28;20057;-43
2023/05/04 03:50:57;;;;;;;16.15;10.25;;;;;;;11.46;57.45;102325.72;4964901;28;20034;-47
2023/05/04 03:53:22;;;;;;;16.08;9.95;;;;;;;11.34;57.85;102315.72;4961268;28;20065;-43
2023/05/04 03:55:47;;;;;;;15.85;9.65;;;;;;;11.51;57.40;102304.97;4964952;28;20027;-44
2023/05/04 03:58:13;;;;;;;16.10;10.18;;;;;;;11.61;57.29;102304.41;4962171;28;20034;-44
2023/05/04 04:00:38;;;;;;;16.25;9.75;;;;;;;11.67;56.95;102299.38;4965233;28;20042;-44
2023/05/04 04:03:03;;;;;;;17.67;10.10;;;;;;;11.51;57.46;102303.25;4965393;28;20062;-46
2023/05/04 04:05:29;;;;;;;16.60;9.30;;;;;;;11.75;56.67;102301.44;4962104;28;20078;-43
2023/05/04 04:07:54;;;;;;;17.45;9.82;;;;;;;11.51;57.34;102292.81;4964086;28;20031;-45
2023/05/04 04:10:19;;;;;;;17.83;9.38;;;;;;;11.58;57.51;102296.50;4959856;28;20173;-45
2023/05/04 04:12:45;;;;;;;15.77;9.20;;;;;;;11.54;57.34;102289.38;4963442;28;20035;-43
2023/05/04 04:15:10;;;;;;;14.77;8.98;;;;;;;11.82;56.26;102288.56;4964009;28;20031;-43
2023/05/04 04:17:36;;;;;;;15.05;9.90;;;;;;;11.56;57.13;102290.31;4960641;28;20035;-46
2023/05/04 04:20:01;;;;;;;18.08;9.57;;;;;;;11.23;57.72;102293.59;4963722;28;20138;-43
2023/05/04 04:22:27;;;;;;;14.63;9.13;;;;;;;11.35;58.00;102287.91;4960496;28;20041;-45
2023/05/04 04:24:52;;;;;;;18.33;9.50;;;;;;;11.37;57.34;102289.72;4963612;28;20062;-47
2023/05/04 04:27:17;;;;;;;16.85;9.43;;;;;;;11.63;56.75;102282.75;4959842;28;20135;-43
2023/05/04 04:29:43;;;;;;;15.43;10.18;;;;;;;11.35;57.53;102283.56;4963743;28;20031;-43
2023/05/04 04:32:08;;;;;;;17.75;9.20;;;;;;;11.47;56.89;102277.84;4963726;28;20035;-44
2023/05/04 04:34:33;;;;;;;15.63;9.15;;;;;;;11.63;56.56;102280.13;4958252;28;20564;-44
2023/05/04 04:36:59;;;;;;;18.50;9.43;;;;;;;11.60;56.72;102279.13;4961407;28;20478;-45
2023/05/04 04:39:25;;;;;;;22.20;9.20;;;;;;;11.51;56.69;102282.34;4960298;28;20085;-47
2023/05/04 04:41:51;;;;;;;16.92;9.02;;;;;;;11.67;56.99;102279.38;4963092;28;20521;-42
2023/05/04 04:44:16;;;;;;;19.55;9.48;;;;;;;11.85;56.43;102273.84;4959678;28;20035;-42
2023/05/04 04:46:41;;;;;;;17.10;9.23;;;;;;;11.73;55.65;102276.06;4963761;28;20500;-44
2023/05/04 04:49:06;;;;;;;19.75;9.38;;;;;;;11.70;56.65;102270.75;4962934;28;20035;-43
2023/05/04 04:51:32;;;;;;;15.93;9.38;;;;;;;11.87;55.81;102281.75;4959740;28;20489;-43
2023/05/04 04:53:58;;;;;;;16.85;9.80;;;;;;;12.02;55.45;102279.59;4963624;28;20050;-45
2023/05/04 04:56:23;;;;;;;16.33;9.20;;;;;;;11.97;55.39;102274.22;4960839;28;20033;-42
2023/05/04 04:58:49;;;;;;;19.23;9.88;;;;;;;12.20;54.95;102273.16;4964153;28;20043;-42
2023/05/04 05:01:16;;;;;;;16.23;9.15;;;;;;;12.21;55.02;102274.06;4961982;28;20065;-46
2023/05/04 05:03:45;;;;;;;16.42;8.70;;;;;;;12.25;54.55;102272.44;4965395;28;20038;-44
2023/05/04 05:06:11;;;;;;;16.67;9.35;;;;;;;11.70;55.97;102276.88;4960956;28;20042;-43
2023/05/04 05:08:37;;;;;;;15.05;8.65;;;;;;;12.31;54.62;102263.03;4960562;28;20047;-47
2023/05/04 05:11:02;;;;;;;20.20;9.50;;;;;;;12.07;55.12;102268.44;4962877;28;20034;-43
2023/05/04 05:13:29;;;;;;;14.50;8.95;;;;;;;12.23;54.92;102268.88;4959651;28;20055;-44
2023/05/04 05:15:55;;;;;;;16.48;9.20;;;;;;;12.45;53.59;102268.63;4962929;28;20125;-47
2023/05/04 05:18:20;;;;;;;14.65;9.13;;;;;;;12.49;53.18;102270.50;4960139;28;20131;-46
2023/05/04 05:20:45;;;;;;;16.65;9.32;;;;;;;12.46;53.65;102260.84;4962675;28;20045;-44
2023/05/04 05:23:11;;;;;;;18.75;9.18;;;;;;;12.37;54.17;102264.94;4961111;28;20565;-46
2023/05/04 05:25:36;;;;;;;16.60;8.98;;;;;;;12.79;53.04;102262.59;4963872;28;20027;-44
2023/05/04 05:28:02;;;;;;;13.52;8.85;;;;;;;12.62;53.18;102266.50;4963589;28;20138;-44
2023/05/04 05:30:27;;;;;;;17.90;9.25;;;;;;;12.49;53.51;102263.56;4960507;28;20404;-44
2023/05/04 05:32:52;;;;;;;15.38;8.75;;;;;;;12.89;52.10;102262.00;4963673;28;20050;-43
2023/05/04 05:35:18;;;;;;;15.18;9.30;;;;;;;12.96;52.36;102267.44;4960286;28;20557;-43
2023/05/04 05:37:43;;;;;;;13.98;8.82;;;;;;;13.11;51.36;102272.19;4962918;28;20101;-46
2023/05/04 05:40:09;;;;;;;13.70;9.00;;;;;;;13.41;51.08;102266.84;4963939;28;20397;-43
2023/05/04 05:42:34;;;;;;;18.90;8.75;;;;;;;13.64;50.31;102265.63;4963306;28;20118;-42
2023/05/04 05:45:00;;;;;;;16.20;9.60;;;;;;;13.12;50.76;102265.19;4966461;28;20039;-43
2023/05/04 05:47:26;;;;;;;16.35;9.07;;;;;;;13.38;50.96;102267.63;4962818;28;20035;-47
2023/05/04 05:49:51;;;;;;;16.60;8.35;;;;;;;13.50;49.45;102260.91;4966195;28;20108;-42
2023/05/04 05:52:17;;;;;;;18.35;9.02;;;;;;;13.61;49.94;102265.56;4962758;28;20027;-43
2023/05/04 05:54:42;;;;;;;17.13;10.10;;;;;;;13.94;49.07;102262.81;4966150;28;20110;-46
2023/05/04 05:57:08;;;;;;;15.52;8.65;;;;;;;14.04;48.49;102258.63;4967986;28;20034;-44
2023/05/04 05:59:33;;;;;;;19.85;9.07;;;;;;;13.84;48.74;102262.59;4962722;28;20110;-44
2023/05/04 06:01:59;;;;;;;16.13;9.05;;;;;;;13.91;48.53;102254.84;4966639;28;20117;-44
2023/05/04 06:04:24;;;;;;;12.73;8.55;;;;;;;14.64;46.65;102260.78;4963715;28;20109;-43
2023/05/04 06:06:49;;;;;;;14.73;8.95;;;;;;;14.98;46.10;102253.50;4968229;28;20464;-43
2023/05/04 06:09:15;;;;;;;13.02;8.38;;;;;;;14.76;46.79;102251.34;4966284;28;20038;-47
2023/05/04 06:11:41;;;;;;;17.52;8.70;;;;;;;15.01;45.86;102245.69;4970739;28;20039;-44
2023/05/04 06:14:06;;;;;;;16.08;8.65;;;;;;;15.42;45.24;102246.38;4965616;28;20093;-43
2023/05/04 06:16:32;;;;;;;18.10;8.20;;;;;;;15.09;45.31;102247.56;4963434;28;20447;-42
2023/05/04 06:18:57;;;;;;;20.85;8.75;;;;;;;15.46;44.26;102251.66;4966394;28;20035;-47
2023/05/04 06:21:22;;;;;;;16.15;8.48;;;;;;;15.39;44.88;102243.66;4962417;28;20118;-44
2023/05/04 06:23:48;;;;;;;14.50;9.20;;;;;;;15.98;43.58;102243.66;4965859;28;20514;-44
2023/05/04 06:26:13;;;;;;;15.02;8.52;;;;;;;16.35;42.55;102236.22;4963787;28;20405;-45
2023/05/04 06:28:39;;;;;;;13.90;8.50;;;;;;;16.50;42.42;102236.41;4965401;28;20166;-41
2023/05/04 06:31:04;;;;;;;14.85;8.25;;;;;;;17.13;41.10;102233.53;4965388;28;20506;-44
2023/05/04 06:33:30;;;;;;;12.45;8.50;;;;;;;17.76;40.03;102232.19;4962297;28;20031;-42
2023/05/04 06:35:55;;;;;;;17.65;8.52;;;;;;;18.28;38.10;102230.69;4965711;28;20518;-42
2023/05/04 06:38:21;;;;;;;15.30;8.15;;;;;;;19.01;37.45;102225.56;4961803;28;20444;-42
2023/05/04 06:40:47;;;;;;;15.85;8.63;;;;;;;19.43;36.77;102228.16;4964809;28;20409;-46
2023/05/04 06:43:12;;;;;;;13.32;8.43;;;;;;;19.61;35.28;102223.75;4961773;28;20430;-46
2023/05/04 06:45:38;;;;;;;12.75;7.85;;;;;;;19.27;35.35;102220.25;4965433;28;20034;-44
2023/05/04 06:48:04;;;;;;;15.65;8.80;;;;;;;18.67;36.43;102216.72;4965048;28;20429;-43
2023/05/04 06:50:30;;;;;;;17.08;8.45;;;;;;;18.60;37.33;102217.59;4961416;28;20493;-44
2023/05/04 06:53:03;;;;;;;13.13;7.65;;;;;;;18.58;37.36;102222.00;4965101;28;20031;-43
2023/05/04 06:55:28;;;;;;;14.20;8.15;;;;;;;18.45;37.25;102217.53;4961948;28;20081;-42
2023/05/04 06:57:54;;;;;;;14.75;8.35;;;;;;;18.84;37.20;102217.63;4964925;28;20062;-43
2023/05/04 07:00:19;;;;;;;14.85;8.05;;;;;;;17.75;38.57;102215.50;4961090;28;20047;-47
2023/05/04 07:02:45;;;;;;;12.73;8.68;;;;;;;17.81;39.16;102204.97;4965022;28;20034;-42
2023/05/04 07:05:11;;;;;;;13.98;8.95;;;;;;;18.29;38.46;102203.41;4962241;28;20027;-52
2023/05/04 07:07:37;;;;;;;13.55;8.88;;;;;;;17.59;38.91;102197.78;4965114;28;20383;-44
2023/05/04 07:10:02;;;;;;;14.85;8.57;;;;;;;18.39;38.71;102199.91;4964755;28;20504;-43
2023/05/04 07:12:27;;;;;;;16.05;8.55;;;;;;;19.29;37.11;102190.28;4961762;28;20027;-46
2023/05/04 07:14:53;;;;;;;14.32;8.77;;;;;;;19.32;36.43;102184.13;4965109;28;20461;-42
2023/05/04 07:17:20;;;;;;;13.68;8.68;;;;;;;18.82;37.41;102185.03;4961506;28;20034;-44
2023/05/04 07:19:48;;;;;;;13.02;8.45;;;;;;;18.95;37.42;102178.00;4964448;28;20110;-43
2023/05/04 07:22:14;;;;;;;15.07;9.07;;;;;;;18.69;37.27;102191.19;4944688;28;20334;-43
2023/05/04 07:24:39;;;;;;;10.88;8.18;;;;;;;19.44;37.46;102182.31;4945593;28;20055;-43
2023/05/04 07:27:04;;;;;;;13.23;8.65;;;;;;;19.83;36.76;102177.81;4945308;28;20443;-46
2023/05/04 07:29:31;;;;;;;11.23;8.00;;;;;;;20.27;35.70;102174.94;4944587;28;22638;-41
2023/05/04 07:31:56;;;;;;;14.25;8.40;;;;;;;19.42;36.13;102173.50;4947423;28;20061;-44
2023/05/04 07:34:21;;;;;;;15.38;8.68;;;;;;;19.60;36.56;102174.38;4944254;28;20058;-45
2023/05/04 07:36:47;;;;;;;14.05;8.90;;;;;;;19.41;37.61;102173.50;4945904;28;20126;-48
2023/05/04 07:39:12;;;;;;;11.85;8.75;;;;;;;20.00;36.79;102170.69;4941443;28;20494;-42
2023/05/04 07:41:37;;;;;;;13.20;8.10;;;;;;;20.19;36.17;102172.31;4944800;28;20028;-42
2023/05/04 07:44:04;;;;;;;12.60;7.68;;;;;;;19.95;36.29;102167.16;4944914;28;20165;-43
2023/05/04 07:46:30;;;;;;;13.30;8.25;;;;;;;19.80;35.62;102162.84;4941591;28;20038;-45
2023/05/04 07:48:55;;;;;;;13.57;8.02;;;;;;;20.16;35.77;102160.88;4946004;28;20040;-46
2023/05/04 07:51:21;;;;;;;12.77;8.48;;;;;;;20.09;35.82;102161.81;4942290;28;20090;-45
2023/05/04 07:53:46;;;;;;;15.85;8.10;;;;;;;19.68;36.61;102156.72;4944904;28;20046;-43
2023/05/04 07:56:12;;;;;;;13.50;8.45;;;;;;;19.39;36.39;102146.19;4941852;28;20035;-43
2023/05/04 07:58:38;;;;;;;14.55;8.75;;;;;;;20.03;35.88;102143.31;4945459;28;20031;-45
2023/05/04 08:01:03;;;;;;;13.60;8.10;;;;;;;20.06;35.85;102140.66;4946146;28;20035;-42
2023/05/04 08:03:30;;;;;;;11.75;8.20;;;;;;;20.20;36.00;102134.38;4942330;28;20510;-42
2023/05/04 08:05:56;;;;;;;15.45;8.00;;;;;;;20.94;34.99;102132.94;4946563;28;20126;-42
2023/05/04 08:08:21;;;;;;;15.18;8.60;;;;;;;20.66;34.98;102126.13;4943191;28;20518;-42
2023/05/04 08:10:47;;;;;;;14.27;8.25;;;;;;;20.78;35.43;102131.34;4946708;28;20035;-43
2023/05/04 08:13:12;;;;;;;14.05;8.57;;;;;;;20.52;35.64;102128.88;4943188;28;20035;-46
2023/05/04 08:15:38;;;;;;;13.05;8.40;;;;;;;20.36;36.32;102127.25;4944398;28;20117;-43
2023/05/04 08:18:03;;;;;;;12.15;8.75;;;;;;;20.25;36.10;102129.03;4945041;28;20514;-45
2023/05/04 08:20:29;;;;;;;15.00;8.70;;;;;;;20.04;36.66;102123.88;4940923;28;20046;-47
2023/05/04 08:22:54;;;;;;;14.32;9.45;;;;;;;19.68;37.87;102122.31;4963974;28;20031;-43
2023/05/04 08:25:21;;;;;;;14.80;9.07;;;;;;;19.83;38.11;102117.81;4960495;28;20093;-43
2023/05/04 08:27:47;;;;;;;12.45;9.23;;;;;;;19.63;37.23;102127.63;4963384;28;20035;-45
2023/05/04 08:30:13;;;;;;;15.35;9.15;;;;;;;19.44;38.23;102126.78;4957176;28;20039;-45
2023/05/04 08:32:38;;;;;;;13.40;8.70;;;;;;;19.59;37.93;102120.56;4964539;28;20034;-44
2023/05/04 08:35:05;;;;;;;15.73;9.40;;;;;;;19.25;38.67;102119.78;4964449;28;20129;-47
2023/05/04 08:37:31;;;;;;;17.88;9.20;;;;;;;19.30;39.12;102120.66;4959684;28;20184;-42
2023/05/04 08:39:56;;;;;;;15.80;9.05;;;;;;;19.77;38.16;102120.50;4963180;28;20035;-44
2023/05/04 08:42:30;;;;;;;14.63;9.30;;;;;;;19.23;39.13;102115.38;4956578;28;20031;-44
2023/05/04 08:44:57;;;;;;;16.08;9.30;;;;;;;19.54;38.94;102113.53;4965317;28;20038;-42
2023/05/04 08:47:24;;;;;;;13.23;8.93;;;;;;;19.74;38.52;102106.41;4960050;28;20035;-46
2023/05/04 08:49:49;;;;;;;15.00;9.20;;;;;;;19.94;38.12;102101.91;4963526;28;20493;-44
2023/05/04 08:52:15;;;;;;;17.25;9.15;;;;;;;19.88;39.42;102091.34;4960255;28;20039;-43
2023/05/04 08:54:42;;;;;;;14.75;9.00;;;;;;;19.90;38.36;102092.19;4964039;28;20023;-45
2023/05/04 08:57:08;;;;;;;16.20;8.73;;;;;;;19.47;38.36;102101.22;4963574;28;20405;-42
2023/05/04 08:59:35;;;;;;;13.43;8.45;;;;;;;19.64;37.96;102091.47;4959903;28;20031;-43
2023/05/04 09:02:01;;;;;;;13.60;8.57;;;;;;;20.10;39.08;102092.09;4963426;28;20027;-43
2023/05/04 09:04:27;;;;;;;13.80;8.88;;;;;;;20.13;37.69;102081.47;4960257;28;20038;-42
2023/05/04 09:06:52;;;;;;;11.73;8.38;;;;;;;19.98;37.35;102084.22;4963783;28;20113;-43
2023/05/04 09:09:20;;;;;;;14.43;8.82;;;;;;;19.81;38.38;102077.28;4958676;28;20059;-43
2023/05/04 09:11:46;;;;;;;13.55;9.10;;;;;;;19.89;38.52;102074.56;4963169;28;20386;-48
2023/05/04 09:14:12;;;;;;;16.08;8.85;;;;;;;19.92;38.41;102073.66;4960252;28;20568;-44
2023/05/04 09:16:38;;;;;;;17.40;8.93;;;;;;;20.23;37.64;102069.94;4966597;28;20122;-45
2023/05/04 09:19:15;;;;;;;14.27;8.38;;;;;;;20.49;37.67;102075.06;4966343;28;20039;-43
2023/05/04 09:21:40;;;;;;;14.48;8.50;;;;;;;20.26;36.67;102062.84;4963949;28;20096;-42
2023/05/04 09:24:06;;;;;;;13.73;8.60;;;;;;;20.18;37.02;102063.81;4966780;28;20039;-43
2023/05/04 09:26:32;;;;;;;13.05;8.25;;;;;;;20.21;36.02;102058.47;4963076;28;20086;-43
2023/05/04 09:29:14;;;;;;;12.30;8.30;;;;;;;20.20;36.85;102052.28;4966187;28;20125;-44
2023/05/04 09:31:50;;;;;;;15.95;7.90;;;;;;;20.31;37.53;102054.84;4963670;28;20034;-43
2023/05/04 09:34:16;;;;;;;12.77;7.93;;;;;;;20.42;36.69;102042.44;4963315;28;20033;-44
2023/05/04 09:36:41;;;;;;;14.48;8.48;;;;;;;20.09;36.04;102048.84;4967082;28;20046;-42
2023/05/04 09:39:14;;;;;;;12.90;7.72;;;;;;;20.47;36.75;102040.63;4967716;28;20027;-42
2023/05/04 09:41:40;;;;;;;14.88;8.43;;;;;;;20.31;37.58;102048.69;4963866;28;20054;-44
2023/05/04 09:44:23;;;;;;;18.00;9.00;;;;;;;20.33;37.40;102044.28;4967096;28;20489;-43
2023/05/04 09:46:55;;;;;;;15.07;8.18;;;;;;;20.78;36.87;102049.16;4965730;28;20039;-43
2023/05/04 09:49:37;;;;;;;13.57;8.20;;;;;;;20.82;35.59;102039.41;4963588;28;20533;-42
2023/05/04 09:52:04;;;;;;;12.07;7.85;;;;;;;20.93;36.06;102038.38;4967523;28;20125;-41
2023/05/04 09:54:37;;;;;;;13.52;8.32;;;;;;;21.06;36.23;102036.47;4964154;28;20584;-42
2023/05/04 09:57:13;;;;;;;10.63;7.82;;;;;;;20.82;35.21;102032.34;4966423;28;20042;-43
2023/05/04 09:59:39;;;;;;;14.10;8.30;;;;;;;21.21;34.99;102020.44;4962729;28;20042;-44
2023/05/04 10:02:05;;;;;;;11.27;8.10;;;;;;;21.10;35.14;102013.47;4965567;28;20070;-44
2023/05/04 10:04:32;;;;;;;13.23;7.72;;;;;;;21.47;35.43;102008.63;4962881;28;24194;-44
2023/05/04 10:06:59;;;;;;;12.32;8.10;;;;;;;21.48;35.07;102007.69;4965651;28;20061;-45
2023/05/04 10:09:28;;;;;;;14.00;8.07;;;;;;;21.52;34.40;101999.69;4962121;28;20116;-44
2023/05/04 10:11:55;;;;;;;14.20;7.82;;;;;;;21.24;33.57;101985.03;4964508;28;20114;-44
2023/05/04 10:14:21;;;;;;;10.57;7.65;;;;;;;21.20;34.54;101994.81;4962391;28;20517;-43
2023/05/04 10:17:11;;;;;;;13.02;7.78;;;;;;;21.74;34.60;101985.19;4965642;28;20053;-45
2023/05/04 10:20:06;;;;;;;12.68;8.38;;;;;;;21.58;34.03;101986.34;4961966;28;20131;-44
2023/05/04 10:22:44;;;;;;;10.98;7.82;;;;;;;21.48;34.31;101971.44;4963332;28;20411;-46
2023/05/04 10:25:41;;;;;;;11.05;7.68;;;;;;;21.68;34.25;101972.03;4966917;28;20057;-43
2023/05/04 10:28:45;;;;;;;12.13;7.82;;;;;;;22.17;33.84;101966.84;4964873;28;20043;-46
2023/05/04 10:31:10;;;;;;;13.48;8.05;;;;;;;21.66;34.32;101968.50;4923067;29;20040;-45
2023/05/04 10:33:40;;;;;;;11.93;7.85;;;;;;;21.62;33.84;101955.31;4952851;28;20038;-45
2023/05/04 10:36:06;;;;;;;17.83;8.65;;;;;;;21.62;34.28;101957.97;4965508;28;20033;-45
2023/05/04 10:38:33;;;;;;;11.75;8.18;;;;;;;21.73;33.90;101950.72;4963116;28;20505;-45
2023/05/04 10:40:58;;;;;;;12.32;7.80;;;;;;;22.17;32.99;101947.38;4967335;28;20082;-45
2023/05/04 10:43:24;;;;;;;13.00;8.25;;;;;;;22.30;33.19;101943.59;4962654;28;20445;-49
2023/05/04 10:45:50;;;;;;;13.57;7.47;;;;;;;22.04;34.20;101935.19;4965686;28;20031;-45
2023/05/04 10:48:15;;;;;;;12.88;7.00;;;;;;;22.47;34.38;101936.19;4962757;28;20038;-46
2023/05/04 10:50:45;;;;;;;13.15;8.27;;;;;;;22.25;33.21;101937.50;4967575;28;20089;-46
2023/05/04 10:53:12;;;;;;;14.93;8.02;;;;;;;22.42;34.00;101923.88;4967461;28;20510;-45
2023/05/04 10:55:42;;;;;;;12.35;6.88;;;;;;;22.56;33.09;101917.41;4962162;28;20026;-47
2023/05/04 10:58:09;;;;;;;12.05;7.68;;;;;;;22.61;34.30;101912.88;4947811;28;20391;-46
2023/05/04 11:00:43;;;;;;;14.73;8.10;;;;;;;22.53;33.25;101913.91;4961916;28;20031;-47
2023/05/04 11:03:10;;;;;;;10.95;7.47;;;;;;;22.76;33.29;101914.34;4965166;28;20066;-48
2023/05/04 11:05:43;;;;;;;11.52;6.97;;;;;;;23.16;32.85;101905.53;4961615;28;20502;-44
2023/05/04 11:08:18;;;;;;;12.80;7.45;;;;;;;22.94;32.46;101902.47;4964595;28;20047;-45
2023/05/04 11:10:48;;;;;;;15.75;7.60;;;;;;;23.39;32.31;101897.91;4963445;28;20126;-44
2023/05/04 11:13:17;;;;;;;14.23;7.50;;;;;;;23.00;32.82;101903.22;4960247;28;20402;-44